Time;durP1;ratioP1;P1;durP2;ratioP2;P2;SDS_P1;SDS_P2;PMS_P1;PMS_P2;Temp;Humidity;BMP_temperature;BMP_pressure;BME280_temperature;BME280_humidity;BME280_pressure;Samples;Min_cycle;Max_cycle;Signal;HPM_P1;HPM_P2
2021/10/25 00:02:17;;;;;;;6.47;4.17;;;2.60;99.90;;;;;;4988350;28;20191;-77
2021/10/25 00:04:43;;;;;;;6.50;3.67;;;2.50;99.90;;;;;;4987608;28;20682;-77
2021/10/25 00:07:09;;;;;;;6.67;3.53;;;2.50;99.90;;;;;;4989323;28;20192;-77
2021/10/25 00:09:34;;;;;;;4.97;3.53;;;2.50;99.90;;;;;;4988805;28;20188;-76
2021/10/25 00:12:00;;;;;;;4.70;3.53;;;2.60;99.90;;;;;;4988848;28;20207;-77
2021/10/25 00:14:26;;;;;;;4.90;3.50;;;2.70;99.90;;;;;;4987537;28;20186;-77
2021/10/25 00:16:51;;;;;;;6.00;3.53;;;2.70;99.90;;;;;;4987501;28;20204;-77
2021/10/25 00:19:17;;;;;;;7.00;3.87;;;2.60;99.90;;;;;;4988593;28;20180;-77
2021/10/25 00:21:43;;;;;;;5.07;3.70;;;2.60;99.90;;;;;;4987956;28;20196;-77
2021/10/25 00:24:09;;;;;;;5.80;4.10;;;2.50;99.90;;;;;;4988192;28;20208;-76
2021/10/25 00:26:35;;;;;;;6.23;3.53;;;2.50;99.90;;;;;;4988628;28;20580;-78
2021/10/25 00:29:01;;;;;;;4.77;3.50;;;2.40;99.90;;;;;;4988656;28;20729;-77
2021/10/25 00:31:27;;;;;;;5.00;3.20;;;2.30;99.90;;;;;;4988260;28;20654;-77
2021/10/25 00:33:52;;;;;;;4.80;3.60;;;2.30;99.90;;;;;;4986899;28;20226;-76
2021/10/25 00:36:18;;;;;;;5.03;3.27;;;2.40;99.90;;;;;;4988433;28;20853;-76
2021/10/25 00:38:44;;;;;;;5.67;3.50;;;2.40;99.90;;;;;;4987200;28;20239;-76
2021/10/25 00:41:10;;;;;;;5.23;2.90;;;2.20;99.90;;;;;;4986831;28;20707;-77
2021/10/25 00:43:36;;;;;;;4.73;3.10;;;2.30;99.90;;;;;;4987015;28;20188;-77
2021/10/25 00:46:02;;;;;;;4.90;3.33;;;2.30;99.90;;;;;;4986322;28;20211;-77
2021/10/25 00:48:28;;;;;;;5.47;3.80;;;2.20;99.90;;;;;;4987935;28;20216;-77
2021/10/25 00:50:53;;;;;;;4.73;3.17;;;2.20;99.90;;;;;;4988098;28;20203;-77
2021/10/25 00:53:20;;;;;;;5.13;3.43;;;2.30;99.90;;;;;;5002727;28;20180;-77
2021/10/25 00:55:46;;;;;;;8.07;3.60;;;2.20;99.90;;;;;;4986816;28;20785;-76
2021/10/25 00:58:12;;;;;;;6.83;3.50;;;2.30;99.90;;;;;;4987819;28;20266;-77
2021/10/25 01:00:39;;;;;;;5.47;3.00;;;2.30;99.90;;;;;;4987964;28;20693;-76
2021/10/25 01:03:05;;;;;;;4.83;3.17;;;2.20;99.90;;;;;;4987993;28;20250;-77
2021/10/25 01:05:31;;;;;;;5.27;3.13;;;2.30;99.90;;;;;;4987813;28;20204;-76
2021/10/25 01:08:00;;;;;;;5.70;2.83;;;2.40;99.90;;;;;;4987858;28;21296;-78
2021/10/25 01:10:26;;;;;;;6.27;2.70;;;2.30;99.90;;;;;;4987890;28;20200;-77
2021/10/25 01:12:56;;;;;;;3.60;2.90;;;2.30;99.90;;;;;;4987362;28;20786;-78
2021/10/25 01:15:21;;;;;;;3.90;2.60;;;2.30;99.90;;;;;;4987606;28;20239;-77
2021/10/25 01:17:53;;;;;;;2.83;2.47;;;2.40;99.90;;;;;;4986859;28;20207;-77
2021/10/25 01:20:19;;;;;;;4.37;3.13;;;2.40;99.90;;;;;;4987327;28;20272;-77
2021/10/25 01:22:45;;;;;;;4.63;3.00;;;2.50;99.90;;;;;;4987335;28;20634;-78
2021/10/25 01:25:10;;;;;;;4.90;2.40;;;2.50;99.90;;;;;;4987501;28;20197;-78
2021/10/25 01:27:36;;;;;;;4.40;2.30;;;2.50;99.90;;;;;;4986296;28;20275;-77
2021/10/25 01:30:02;;;;;;;4.43;2.77;;;2.50;99.90;;;;;;4987627;28;20215;-78
2021/10/25 01:32:28;;;;;;;6.30;3.00;;;2.50;99.90;;;;;;4987300;28;20212;-77
2021/10/25 01:34:53;;;;;;;4.67;3.00;;;2.40;99.90;;;;;;4987520;28;20218;-77
2021/10/25 01:37:19;;;;;;;4.83;2.73;;;2.30;99.90;;;;;;4987259;28;20204;-77
2021/10/25 01:39:45;;;;;;;4.57;3.03;;;2.20;99.90;;;;;;4987415;28;21209;-77
2021/10/25 01:42:10;;;;;;;6.67;3.00;;;2.10;99.90;;;;;;4986905;28;20187;-78
2021/10/25 01:44:36;;;;;;;3.87;3.07;;;2.10;99.90;;;;;;4986831;28;20694;-78
2021/10/25 01:47:02;;;;;;;4.33;3.00;;;2.00;99.90;;;;;;4985767;28;20220;-78
2021/10/25 01:49:28;;;;;;;5.97;3.20;;;2.10;99.90;;;;;;4987420;28;20196;-74
2021/10/25 01:51:54;;;;;;;3.50;2.83;;;2.10;99.90;;;;;;4986346;28;20180;-78
2021/10/25 01:54:20;;;;;;;5.47;2.67;;;2.00;99.90;;;;;;4985939;28;20891;-77
2021/10/25 01:56:46;;;;;;;4.37;3.10;;;1.90;99.90;;;;;;4986086;28;20620;-77
2021/10/25 01:59:12;;;;;;;4.77;3.30;;;1.80;99.90;;;;;;4985967;28;20184;-78
2021/10/25 02:01:37;;;;;;;6.17;3.60;;;1.60;99.90;;;;;;4986500;28;20198;-77
2021/10/25 02:04:04;;;;;;;9.17;3.47;;;1.60;99.90;;;;;;4986717;28;20702;-77
2021/10/25 02:06:30;;;;;;;6.20;3.67;;;1.60;99.90;;;;;;4986457;28;20777;-77
2021/10/25 02:08:56;;;;;;;12.67;3.60;;;1.60;99.90;;;;;;4986844;28;20263;-77
2021/10/25 02:11:21;;;;;;;5.83;3.30;;;1.60;99.90;;;;;;4986552;28;20705;-77
2021/10/25 02:13:47;;;;;;;5.97;3.57;;;1.60;99.90;;;;;;4986628;28;20179;-77
2021/10/25 02:16:14;;;;;;;4.87;3.00;;;1.50;99.90;;;;;;4986337;28;20200;-78
2021/10/25 02:18:41;;;;;;;3.97;3.20;;;1.50;99.90;;;;;;4986650;28;20194;-78
2021/10/25 02:21:06;;;;;;;3.83;3.00;;;1.50;99.90;;;;;;4986272;28;20188;-79
2021/10/25 02:23:32;;;;;;;5.07;3.00;;;1.70;99.90;;;;;;4986545;28;20704;-77
2021/10/25 02:25:58;;;;;;;4.97;3.83;;;1.90;99.90;;;;;;4984656;28;20204;-77
2021/10/25 02:28:24;;;;;;;3.93;2.83;;;1.80;99.90;;;;;;4986445;28;20654;-78
2021/10/25 02:30:50;;;;;;;3.67;2.80;;;1.80;99.90;;;;;;4985128;28;20654;-78
2021/10/25 02:33:17;;;;;;;3.73;2.73;;;1.70;99.90;;;;;;4985758;28;20202;-77
2021/10/25 02:35:43;;;;;;;4.80;3.03;;;1.70;99.90;;;;;;4985733;28;20238;-77
2021/10/25 02:38:09;;;;;;;4.03;3.00;;;1.70;99.90;;;;;;4985878;28;21040;-77
2021/10/25 02:40:34;;;;;;;4.77;3.20;;;1.70;99.90;;;;;;4986073;28;20247;-78
2021/10/25 02:43:00;;;;;;;4.30;3.23;;;1.70;99.90;;;;;;4985712;28;20266;-79
2021/10/25 02:45:26;;;;;;;3.77;2.93;;;1.80;99.90;;;;;;4984456;28;20216;-77
2021/10/25 02:47:52;;;;;;;5.03;3.30;;;1.70;99.90;;;;;;4985498;28;20208;-77
2021/10/25 02:50:18;;;;;;;5.87;3.30;;;1.70;99.90;;;;;;4986169;28;20259;-78
2021/10/25 02:52:44;;;;;;;5.17;3.37;;;1.70;99.90;;;;;;4985942;28;20177;-78
2021/10/25 02:55:10;;;;;;;4.70;3.10;;;1.70;99.90;;;;;;4984582;28;20577;-77
2021/10/25 02:57:36;;;;;;;4.80;3.37;;;1.70;99.90;;;;;;4986226;28;20219;-77
2021/10/25 03:00:06;;;;;;;4.27;2.90;;;1.70;99.90;;;;;;4984917;28;20246;-77
2021/10/25 03:02:32;;;;;;;5.33;3.00;;;1.70;99.90;;;;;;4985461;28;20195;-77
2021/10/25 03:04:58;;;;;;;4.03;3.07;;;1.60;99.90;;;;;;4986083;28;20239;-77
2021/10/25 03:07:24;;;;;;;4.57;2.90;;;1.50;99.90;;;;;;4985078;28;20287;-77
2021/10/25 03:09:50;;;;;;;5.67;3.30;;;1.50;99.90;;;;;;4985504;28;20616;-77
2021/10/25 03:12:16;;;;;;;3.87;3.17;;;1.50;99.90;;;;;;4984972;28;20238;-77
2021/10/25 03:14:42;;;;;;;5.03;3.17;;;1.50;99.90;;;;;;4985608;28;20192;-77
2021/10/25 03:17:08;;;;;;;7.13;3.97;;;1.40;99.90;;;;;;4984730;28;20299;-77
2021/10/25 03:19:33;;;;;;;4.47;3.13;;;1.40;99.90;;;;;;4984552;28;20283;-78
2021/10/25 03:21:59;;;;;;;3.97;3.20;;;1.40;99.90;;;;;;4986015;28;20188;-79
2021/10/25 03:24:25;;;;;;;4.87;3.37;;;1.40;99.90;;;;;;4985539;28;20732;-78
2021/10/25 03:26:50;;;;;;;5.20;3.50;;;1.40;99.90;;;;;;4985339;28;20622;-78
2021/10/25 03:29:16;;;;;;;4.60;3.20;;;1.30;99.90;;;;;;4984372;28;21146;-77
2021/10/25 03:31:42;;;;;;;9.50;3.40;;;1.30;99.90;;;;;;4984628;28;20180;-77
2021/10/25 03:34:08;;;;;;;3.47;3.00;;;1.30;99.90;;;;;;4983957;28;20677;-77
2021/10/25 03:36:35;;;;;;;4.30;3.20;;;1.20;99.90;;;;;;4984118;28;20208;-78
2021/10/25 03:39:01;;;;;;;5.07;3.40;;;1.20;99.90;;;;;;4986097;28;20263;-78
2021/10/25 03:41:38;;;;;;;5.87;3.30;;;1.20;99.90;;;;;;4989095;28;20248;-78
2021/10/25 03:44:17;;;;;;;3.50;2.47;;;1.20;99.90;;;;;;4989212;28;20263;-78
2021/10/25 03:51:42;;;;;;;3.27;2.83;;;1.10;99.90;;;;;;4989100;28;20275;-77
2021/10/25 04:12:57;;;;;;;4.40;2.93;;;1.30;99.90;;;;;;4989328;28;20211;-77
2021/10/25 04:29:03;;;;;;;4.93;2.93;;;0.80;99.90;;;;;;4988458;28;20180;-78
2021/10/25 04:31:29;;;;;;;3.67;2.80;;;0.80;99.90;;;;;;4988625;28;20283;-77
2021/10/25 04:33:54;;;;;;;4.93;2.70;;;0.90;99.90;;;;;;4988170;28;20622;-77
2021/10/25 04:36:20;;;;;;;5.33;2.70;;;0.90;99.90;;;;;;4988671;28;20734;-77
2021/10/25 04:38:46;;;;;;;3.13;2.50;;;0.80;99.90;;;;;;4988191;28;20275;-77
2021/10/25 04:41:11;;;;;;;3.80;2.70;;;0.70;99.90;;;;;;4988440;28;20670;-77
2021/10/25 04:43:39;;;;;;;4.13;2.80;;;0.70;99.90;;;;;;4987986;28;20199;-77
2021/10/25 04:46:05;;;;;;;6.93;3.20;;;0.70;99.90;;;;;;4987986;28;20269;-76
2021/10/25 04:48:30;;;;;;;3.73;2.93;;;0.60;99.90;;;;;;4988097;28;20189;-77
2021/10/25 04:50:56;;;;;;;4.03;2.87;;;0.70;99.90;;;;;;4987075;28;20375;-76
2021/10/25 04:53:21;;;;;;;3.80;2.70;;;0.70;99.90;;;;;;4987473;28;20263;-75
2021/10/25 04:55:47;;;;;;;2.87;2.20;;;0.70;99.90;;;;;;4988209;28;20571;-78
2021/10/25 04:58:13;;;;;;;4.60;2.83;;;0.60;99.90;;;;;;4986585;28;20274;-75
2021/10/25 05:00:39;;;;;;;4.67;2.77;;;0.60;99.90;;;;;;4988113;28;20191;-77
2021/10/25 05:03:06;;;;;;;4.10;3.10;;;0.70;99.90;;;;;;4987265;28;20196;-77
2021/10/25 05:05:32;;;;;;;7.43;3.37;;;0.70;99.90;;;;;;4987828;28;20208;-77
2021/10/25 05:07:58;;;;;;;3.43;2.90;;;0.70;99.90;;;;;;4986027;28;20214;-76
2021/10/25 05:10:23;;;;;;;3.77;2.73;;;0.70;99.90;;;;;;4988164;28;20188;-77
2021/10/25 05:12:49;;;;;;;3.20;2.90;;;0.80;99.90;;;;;;4987009;28;20203;-77
2021/10/25 05:15:15;;;;;;;3.93;2.90;;;0.80;99.90;;;;;;4987682;28;20238;-77
2021/10/25 05:17:41;;;;;;;3.97;2.70;;;0.80;99.90;;;;;;4987258;28;20212;-77
2021/10/25 05:20:08;;;;;;;4.90;3.30;;;0.90;99.90;;;;;;4988098;28;20233;-77
2021/10/25 05:22:33;;;;;;;5.67;3.67;;;0.90;99.90;;;;;;5001774;28;20203;-77
2021/10/25 05:25:00;;;;;;;5.80;3.40;;;1.00;99.90;;;;;;4987679;28;20205;-78
2021/10/25 05:27:25;;;;;;;5.00;3.37;;;1.10;99.90;;;;;;4987337;28;20208;-77
2021/10/25 05:29:51;;;;;;;5.77;2.70;;;1.00;99.90;;;;;;4984326;28;20188;-77
2021/10/25 05:32:17;;;;;;;3.67;3.03;;;1.00;99.90;;;;;;4986663;28;20191;-77
2021/10/25 05:34:43;;;;;;;3.57;3.07;;;0.90;99.90;;;;;;4987294;28;20195;-77
2021/10/25 05:37:09;;;;;;;5.27;2.90;;;0.90;99.90;;;;;;4985843;28;20204;-77
2021/10/25 05:39:36;;;;;;;6.20;3.30;;;0.80;99.90;;;;;;4986767;28;20619;-77
2021/10/25 05:42:05;;;;;;;4.60;3.13;;;0.80;99.90;;;;;;4986398;28;20200;-76
2021/10/25 05:44:30;;;;;;;4.50;3.57;;;0.70;99.90;;;;;;4987287;28;20231;-77
2021/10/25 05:46:56;;;;;;;4.83;3.27;;;0.70;99.90;;;;;;4985939;28;20255;-77
2021/10/25 05:49:22;;;;;;;5.83;3.50;;;0.60;99.90;;;;;;4985444;28;20191;-77
2021/10/25 05:51:47;;;;;;;5.30;3.50;;;0.60;99.90;;;;;;4986721;28;20188;-78
2021/10/25 05:54:13;;;;;;;6.73;3.70;;;0.70;99.90;;;;;;4986485;28;20267;-78
2021/10/25 05:56:38;;;;;;;5.03;3.53;;;0.70;99.90;;;;;;4986743;28;20258;-76
2021/10/25 05:59:05;;;;;;;6.80;3.83;;;0.80;99.90;;;;;;4986506;28;20191;-77
2021/10/25 06:01:41;;;;;;;6.23;4.03;;;0.90;99.90;;;;;;4986340;28;20185;-77
2021/10/25 06:04:09;;;;;;;4.60;3.67;;;0.80;99.90;;;;;;4986545;28;20176;-77
2021/10/25 06:06:35;;;;;;;4.93;3.97;;;0.80;99.90;;;;;;4986259;28;20658;-77
2021/10/25 06:09:02;;;;;;;4.97;3.83;;;0.80;99.90;;;;;;4986885;28;20184;-77
2021/10/25 06:11:29;;;;;;;5.43;3.40;;;0.80;99.90;;;;;;4986100;28;20212;-77
2021/10/25 06:13:55;;;;;;;4.27;3.23;;;0.80;99.90;;;;;;4986233;28;20187;-78
2021/10/25 06:16:26;;;;;;;5.63;3.20;;;0.80;99.90;;;;;;4986608;28;20204;-77
2021/10/25 06:18:51;;;;;;;6.07;3.93;;;0.90;99.90;;;;;;4986645;28;20172;-77
2021/10/25 06:21:17;;;;;;;5.43;3.17;;;0.90;99.90;;;;;;4986240;28;20180;-78
2021/10/25 06:23:42;;;;;;;5.17;3.67;;;0.90;99.90;;;;;;4986582;28;20246;-77
2021/10/25 06:26:08;;;;;;;5.43;3.50;;;0.90;99.90;;;;;;4985964;28;20204;-77
2021/10/25 06:28:34;;;;;;;4.50;3.60;;;0.90;99.90;;;;;;4986532;28;20188;-77
2021/10/25 06:31:07;;;;;;;5.10;3.40;;;0.90;99.90;;;;;;4985938;28;20273;-77
2021/10/25 06:33:41;;;;;;;5.93;3.50;;;0.90;99.90;;;;;;4986473;28;20176;-76
2021/10/25 06:36:07;;;;;;;5.30;3.30;;;0.90;99.90;;;;;;4985971;28;20172;-77
2021/10/25 06:38:37;;;;;;;5.03;3.57;;;1.00;99.90;;;;;;4985182;28;20669;-77
2021/10/25 06:41:04;;;;;;;3.93;3.50;;;1.00;99.90;;;;;;4986350;28;20180;-77
2021/10/25 06:43:29;;;;;;;6.23;3.53;;;1.10;99.90;;;;;;4986233;28;20196;-77
2021/10/25 06:45:56;;;;;;;6.40;3.83;;;1.20;99.90;;;;;;4984474;28;20219;-76
2021/10/25 06:48:23;;;;;;;5.67;3.40;;;1.20;99.90;;;;;;4986150;28;20185;-78
2021/10/25 06:50:49;;;;;;;4.90;3.93;;;1.30;99.90;;;;;;4983374;28;20188;-78
2021/10/25 06:53:16;;;;;;;4.53;3.27;;;1.40;99.90;;;;;;4983442;28;20184;-77
2021/10/25 06:55:43;;;;;;;6.57;4.00;;;1.50;99.90;;;;;;4983256;28;20590;-77
2021/10/25 06:58:08;;;;;;;3.50;2.97;;;1.60;99.90;;;;;;4983307;28;20254;-77
2021/10/25 07:00:34;;;;;;;5.77;4.07;;;1.70;99.90;;;;;;4983507;28;20196;-76
2021/10/25 07:03:00;;;;;;;4.27;3.37;;;1.80;99.90;;;;;;4983685;28;20212;-78
2021/10/25 07:05:30;;;;;;;4.53;3.40;;;1.80;99.90;;;;;;4982905;28;20351;-77
2021/10/25 07:07:55;;;;;;;6.77;3.70;;;1.90;99.90;;;;;;4983066;28;20690;-78
2021/10/25 07:10:21;;;;;;;5.83;3.43;;;2.00;99.90;;;;;;4981888;28;20275;-77
2021/10/25 07:12:48;;;;;;;4.87;3.90;;;2.10;99.90;;;;;;4983648;28;20195;-77
2021/10/25 07:15:16;;;;;;;4.87;3.43;;;2.20;99.90;;;;;;4984124;28;20196;-78
2021/10/25 07:23:29;;;;;;;4.93;3.30;;;2.60;99.90;;;;;;4989902;28;20199;-78
2021/10/25 08:04:15;;;;;;;3.80;3.37;;;5.20;99.90;;;;;;4986174;28;20199;-77
2021/10/25 08:09:21;;;;;;;5.03;3.70;;;5.70;99.90;;;;;;4986360;28;20683;-79
2021/10/25 08:11:50;;;;;;;4.07;3.67;;;5.90;99.90;;;;;;4985993;28;20188;-77
2021/10/25 08:14:16;;;;;;;4.90;3.90;;;6.10;99.90;;;;;;4985772;28;20275;-77
2021/10/25 08:16:50;;;;;;;5.00;3.63;;;6.20;99.90;;;;;;4984435;28;20310;-77
2021/10/25 08:19:28;;;;;;;5.90;3.93;;;6.20;99.90;;;;;;4986051;28;20183;-77
2021/10/25 08:22:02;;;;;;;5.90;3.77;;;6.30;99.90;;;;;;4984491;28;20206;-77
2021/10/25 08:24:38;;;;;;;6.00;3.43;;;6.30;99.90;;;;;;4985562;28;20699;-77
2021/10/25 08:27:09;;;;;;;5.30;3.87;;;6.40;99.90;;;;;;4985183;28;20744;-77
2021/10/25 08:29:36;;;;;;;4.40;3.40;;;6.40;99.90;;;;;;4984576;28;20181;-76
2021/10/25 08:40:00;;;;;;;4.70;3.20;;;6.60;99.90;;;;;;4985456;28;20191;-77
2021/10/25 08:42:26;;;;;;;4.63;3.20;;;6.60;99.90;;;;;;4985258;28;20263;-76
2021/10/25 08:45:04;;;;;;;4.73;3.57;;;6.70;99.90;;;;;;4986247;28;20331;-77
2021/10/25 08:47:35;;;;;;;6.80;4.03;;;6.70;99.90;;;;;;4985600;28;20758;-76
2021/10/25 08:50:03;;;;;;;4.73;3.80;;;6.90;99.90;;;;;;4985268;28;20169;-77
2021/10/25 08:52:29;;;;;;;4.20;3.40;;;7.20;99.90;;;;;;4986167;28;20184;-77
2021/10/25 08:54:55;;;;;;;5.10;3.70;;;7.40;99.90;;;;;;4984430;28;20230;-78
2021/10/25 08:57:23;;;;;;;5.47;3.13;;;7.60;99.90;;;;;;4983445;28;20204;-77
2021/10/25 09:00:05;;;;;;;3.20;2.87;;;7.90;99.90;;;;;;4983298;28;20177;-77
2021/10/25 09:02:32;;;;;;;3.97;2.97;;;8.00;99.90;;;;;;4983671;28;20597;-77
2021/10/25 09:04:58;;;;;;;4.93;2.57;;;8.10;99.90;;;;;;4981333;28;20192;-78
2021/10/25 09:07:24;;;;;;;4.83;3.50;;;8.20;99.90;;;;;;4981420;28;20287;-78
2021/10/25 09:09:50;;;;;;;6.30;3.70;;;8.40;99.90;;;;;;4983518;28;20622;-77
2021/10/25 09:12:16;;;;;;;6.73;3.67;;;8.40;99.90;;;;;;4983418;28;20654;-78
2021/10/25 09:14:42;;;;;;;3.93;3.27;;;8.50;99.90;;;;;;4985011;28;20181;-77
2021/10/25 09:17:09;;;;;;;4.07;3.40;;;8.60;99.90;;;;;;4984634;28;20203;-78
2021/10/25 09:19:37;;;;;;;5.17;3.70;;;8.70;99.90;;;;;;4984863;28;20188;-77
2021/10/25 09:22:15;;;;;;;11.10;6.93;;;8.80;99.90;;;;;;4984670;28;20222;-77
2021/10/25 09:24:56;;;;;;;7.63;5.37;;;8.90;99.90;;;;;;4984937;28;20601;-77
2021/10/25 09:27:38;;;;;;;8.00;5.00;;;9.00;99.90;;;;;;4984643;28;20291;-78
2021/10/25 09:30:10;;;;;;;5.53;4.67;;;9.10;99.90;;;;;;4983234;28;20907;-78
2021/10/25 09:32:39;;;;;;;4.47;3.80;;;9.10;99.90;;;;;;4984443;28;20188;-78
2021/10/25 09:35:15;;;;;;;5.93;3.97;;;9.10;99.90;;;;;;4984173;28;20555;-77
2021/10/25 09:37:46;;;;;;;5.83;3.63;;;9.20;99.90;;;;;;4984135;28;20204;-77
2021/10/25 09:40:22;;;;;;;6.40;4.10;;;9.20;99.90;;;;;;4984663;28;20188;-77
2021/10/25 09:46:05;;;;;;;4.67;3.53;;;9.20;99.90;;;;;;4984378;28;20410;-78
2021/10/25 09:51:16;;;;;;;4.33;3.07;;;9.50;99.90;;;;;;4984182;28;20191;-77
2021/10/25 09:53:45;;;;;;;4.80;3.60;;;9.60;99.90;;;;;;4984365;28;20647;-78
2021/10/25 09:56:12;;;;;;;4.13;3.63;;;9.80;99.90;;;;;;4982456;28;20530;-77
2021/10/25 10:01:29;;;;;;;6.50;3.40;;;10.00;99.90;;;;;;4973439;28;20243;-78
2021/10/25 10:03:55;;;;;;;4.23;3.10;;;10.00;99.90;;;;;;4984346;28;20193;-78
2021/10/25 10:06:21;;;;;;;3.70;3.20;;;10.00;99.90;;;;;;4983682;28;20211;-77
2021/10/25 10:08:47;;;;;;;6.68;3.78;;;10.10;99.90;;;;;;4983151;28;21068;-78
2021/10/25 10:11:13;;;;;;;4.07;3.20;;;10.20;99.90;;;;;;4983748;28;20758;-78
2021/10/25 10:13:41;;;;;;;5.20;3.40;;;10.20;99.90;;;;;;4983940;28;20180;-78
2021/10/25 10:16:09;;;;;;;5.73;3.50;;;10.20;99.90;;;;;;4983632;28;20176;-78
2021/10/25 10:18:36;;;;;;;5.00;3.23;;;10.30;99.90;;;;;;4984212;28;20187;-77
2021/10/25 10:21:05;;;;;;;4.25;3.30;;;10.40;99.90;;;;;;4983572;28;20184;-78
2021/10/25 10:23:32;;;;;;;8.70;3.60;;;10.40;99.90;;;;;;4983566;28;20191;-78
2021/10/25 10:26:03;;;;;;;5.40;3.30;;;10.50;99.90;;;;;;4981987;28;20233;-78
2021/10/25 10:28:35;;;;;;;4.88;3.33;;;10.60;99.90;;;;;;4982657;28;20223;-78
2021/10/25 10:31:05;;;;;;;5.68;3.33;;;10.80;99.90;;;;;;4983148;28;20216;-78
2021/10/25 10:33:49;;;;;;;3.47;2.90;;;10.90;99.90;;;;;;4983481;28;20180;-78
2021/10/25 10:36:33;;;;;;;4.45;3.15;;;11.00;99.90;;;;;;4983511;28;20239;-78
2021/10/25 10:39:09;;;;;;;5.05;3.00;;;10.90;99.90;;;;;;4982535;28;20200;-78
2021/10/25 10:41:41;;;;;;;3.97;3.22;;;11.00;99.90;;;;;;4983755;28;20171;-78
2021/10/25 10:44:09;;;;;;;4.80;3.00;;;11.00;99.90;;;;;;4981205;28;20908;-78
2021/10/25 10:46:55;;;;;;;2.90;2.58;;;11.10;99.90;;;;;;4982239;28;20697;-78
2021/10/25 10:49:27;;;;;;;4.53;2.55;;;11.10;99.90;;;;;;4982483;28;20322;-79
2021/10/25 10:55:00;;;;;;;3.38;2.72;;;11.60;99.90;;;;;;4988065;28;20561;-78
2021/10/25 10:57:58;;;;;;;3.22;2.35;;;11.70;99.90;;;;;;4986919;28;20203;-78
2021/10/25 11:00:31;;;;;;;2.75;2.10;;;11.90;99.90;;;;;;4987265;28;20187;-78
2021/10/25 11:02:58;;;;;;;3.13;2.00;;;11.90;99.90;;;;;;4986699;28;20199;-78
2021/10/25 11:05:38;;;;;;;3.30;2.60;;;11.90;99.90;;;;;;4986958;28;20212;-78
2021/10/25 11:08:16;;;;;;;2.53;2.22;;;11.80;99.90;;;;;;4986739;28;20196;-78
2021/10/25 11:10:43;;;;;;;3.75;2.40;;;11.80;99.90;;;;;;4986891;28;20179;-78
2021/10/25 11:13:20;;;;;;;3.95;2.42;;;11.90;99.90;;;;;;4986856;28;20734;-78
2021/10/25 11:16:19;;;;;;;2.97;2.30;;;11.90;99.90;;;;;;4987117;28;20836;-78
2021/10/25 11:18:47;;;;;;;3.05;2.38;;;11.90;99.90;;;;;;4986556;28;20200;-79
2021/10/25 11:21:32;;;;;;;2.88;1.90;;;12.00;99.90;;;;;;4985325;28;20236;-77
2021/10/25 11:24:00;;;;;;;1.80;1.70;;;12.00;99.90;;;;;;4986773;28;20470;-78
2021/10/25 11:26:31;;;;;;;3.15;2.17;;;12.10;99.90;;;;;;4985243;28;20220;-78
2021/10/25 11:29:23;;;;;;;3.70;2.28;;;12.20;99.90;;;;;;4986520;28;20185;-77
2021/10/25 11:31:57;;;;;;;3.17;1.98;;;12.10;99.90;;;;;;4986211;28;20215;-77
2021/10/25 11:34:27;;;;;;;3.47;1.98;;;12.10;99.90;;;;;;4986763;28;20184;-78
2021/10/25 11:37:02;;;;;;;4.00;2.35;;;12.10;99.90;;;;;;4986618;28;20612;-77
2021/10/25 11:39:34;;;;;;;2.72;2.03;;;12.20;99.90;;;;;;4986081;28;20191;-76
2021/10/25 11:42:00;;;;;;;3.42;2.53;;;12.30;99.90;;;;;;4985719;28;20182;-76
2021/10/25 11:44:26;;;;;;;2.00;1.80;;;12.40;99.90;;;;;;4988770;28;20557;-78
2021/10/25 11:46:51;;;;;;;2.20;1.70;;;12.50;99.90;;;;;;4986296;28;20224;-78
2021/10/25 11:49:23;;;;;;;5.57;1.90;;;12.60;99.90;;;;;;4985947;28;20191;-78
2021/10/25 11:51:51;;;;;;;3.55;1.80;;;12.60;99.90;;;;;;4984579;28;20208;-78
2021/10/25 11:54:17;;;;;;;2.47;1.95;;;12.70;99.90;;;;;;4984599;28;20208;-79
2021/10/25 11:56:50;;;;;;;2.45;1.45;;;12.50;99.90;;;;;;4986127;28;20673;-78
2021/10/25 11:59:17;;;;;;;1.70;1.40;;;12.40;99.90;;;;;;4986037;28;20184;-78
2021/10/25 12:01:43;;;;;;;2.08;1.45;;;12.40;99.90;;;;;;4983865;28;20220;-78
2021/10/25 12:04:09;;;;;;;1.95;1.35;;;12.10;99.90;;;;;;4985555;28;20192;-78
2021/10/25 12:06:36;;;;;;;4.97;1.55;;;12.10;99.90;;;;;;4984507;28;20208;-77
2021/10/25 12:09:08;;;;;;;2.15;1.30;;;12.20;99.90;;;;;;4984551;28;20184;-78
2021/10/25 12:12:13;;;;;;;3.13;1.27;;;12.30;99.90;;;;;;4985746;28;20180;-78
2021/10/25 12:14:35;;;;;;;1.45;1.10;;;12.40;99.90;;;;;;4984229;28;20238;-78
2021/10/25 12:17:01;;;;;;;2.22;1.30;;;12.50;99.90;;;;;;4985417;28;20200;-77
2021/10/25 12:19:27;;;;;;;1.98;1.35;;;12.60;99.90;;;;;;4985461;28;20767;-78
2021/10/25 12:21:53;;;;;;;1.80;1.35;;;12.70;99.90;;;;;;4985620;28;20187;-77
2021/10/25 12:24:21;;;;;;;2.78;1.15;;;12.70;99.90;;;;;;4985386;28;20239;-78
2021/10/25 12:26:59;;;;;;;1.45;1.10;;;12.70;99.90;;;;;;4985163;28;20243;-78
2021/10/25 12:29:24;;;;;;;2.65;0.90;;;12.90;99.90;;;;;;4984288;28;20583;-78
2021/10/25 12:31:51;;;;;;;1.42;1.08;;;12.90;99.90;;;;;;4985470;28;20236;-78
2021/10/25 12:34:17;;;;;;;2.42;1.10;;;12.80;99.90;;;;;;4984208;28;20408;-78
2021/10/25 12:36:45;;;;;;;1.20;1.08;;;12.80;99.90;;;;;;4984096;28;20282;-78
2021/10/25 12:39:16;;;;;;;1.80;1.10;;;12.70;99.90;;;;;;4983801;28;20860;-78
2021/10/25 12:41:59;;;;;;;1.17;0.93;;;12.60;99.90;;;;;;4984021;28;20301;-78
2021/10/25 12:44:33;;;;;;;0.85;0.80;;;12.40;99.90;;;;;;4985306;28;20195;-78
2021/10/25 12:47:13;;;;;;;1.15;0.90;;;12.50;99.90;;;;;;4984757;28;20216;-78
2021/10/25 12:49:39;;;;;;;1.15;0.90;;;12.50;99.90;;;;;;4985377;28;20200;-78
2021/10/25 12:52:07;;;;;;;1.88;1.10;;;12.60;99.90;;;;;;4983431;28;20180;-78
2021/10/25 12:54:38;;;;;;;1.42;1.05;;;12.60;99.90;;;;;;4985282;28;20203;-77
2021/10/25 12:57:19;;;;;;;1.02;0.98;;;12.70;99.90;;;;;;4984428;28;20289;-77
2021/10/25 13:00:06;;;;;;;2.42;1.38;;;12.90;99.90;;;;;;4983632;28;20564;-78
2021/10/25 13:02:52;;;;;;;2.17;1.38;;;12.90;99.90;;;;;;4984657;28;20554;-77
2021/10/25 13:05:26;;;;;;;1.77;1.40;;;12.80;99.90;;;;;;4984012;28;20235;-78
2021/10/25 13:08:10;;;;;;;2.00;1.50;;;12.80;99.90;;;;;;4984678;28;20210;-78
2021/10/25 13:10:41;;;;;;;2.00;1.25;;;12.90;99.90;;;;;;4985471;28;20219;-78
2021/10/25 13:13:11;;;;;;;1.20;1.10;;;12.70;99.90;;;;;;4983658;28;20189;-77
2021/10/25 13:15:38;;;;;;;2.50;1.25;;;12.50;99.90;;;;;;4984973;28;20188;-78
2021/10/25 13:18:06;;;;;;;2.38;1.60;;;12.40;99.90;;;;;;4980994;28;20204;-78
2021/10/25 13:20:35;;;;;;;1.75;1.65;;;12.20;99.90;;;;;;4983672;28;20199;-78
2021/10/25 13:23:03;;;;;;;1.88;1.50;;;12.10;99.90;;;;;;4984105;28;20219;-78
2021/10/25 13:25:29;;;;;;;1.63;1.40;;;12.10;99.90;;;;;;4983236;28;20255;-78
2021/10/25 13:27:57;;;;;;;3.20;1.80;;;12.20;99.90;;;;;;4983900;28;20284;-77
2021/10/25 13:30:24;;;;;;;2.08;1.50;;;12.30;99.90;;;;;;4984397;28;20670;-78
2021/10/25 13:32:50;;;;;;;2.85;1.50;;;12.40;99.90;;;;;;4982903;28;20199;-78
2021/10/25 13:35:17;;;;;;;3.63;1.60;;;12.40;99.90;;;;;;4984577;28;20610;-79
2021/10/25 13:37:45;;;;;;;2.60;1.65;;;12.40;99.90;;;;;;4983306;28;20212;-77
2021/10/25 13:40:12;;;;;;;2.80;1.58;;;12.40;99.90;;;;;;4984511;28;20211;-78
2021/10/25 13:42:39;;;;;;;2.42;1.90;;;12.50;99.90;;;;;;4983784;28;20184;-78
2021/10/25 13:45:06;;;;;;;3.67;1.98;;;12.50;99.90;;;;;;4981674;28;20215;-79
2021/10/25 13:47:32;;;;;;;1.73;1.40;;;12.50;99.90;;;;;;4984215;28;20582;-78
2021/10/25 13:49:57;;;;;;;2.20;1.50;;;12.70;99.90;;;;;;4983158;28;20180;-78
2021/10/25 13:52:24;;;;;;;1.85;1.58;;;12.70;99.90;;;;;;4983740;28;20585;-78
2021/10/25 13:54:50;;;;;;;2.33;1.60;;;12.70;99.90;;;;;;4984533;28;20184;-78
2021/10/25 13:57:21;;;;;;;2.88;1.42;;;12.70;99.90;;;;;;4983916;28;20254;-78
2021/10/25 13:59:47;;;;;;;1.67;1.38;;;12.70;99.90;;;;;;4982932;28;20187;-78
2021/10/25 14:02:14;;;;;;;2.33;1.63;;;12.80;99.90;;;;;;4983903;28;20333;-79
2021/10/25 14:04:52;;;;;;;2.75;1.80;;;12.80;99.90;;;;;;4984074;28;20266;-78
2021/10/25 14:07:21;;;;;;;1.63;1.40;;;12.70;99.90;;;;;;4983845;28;20207;-78
2021/10/25 14:09:54;;;;;;;2.58;1.60;;;12.70;99.90;;;;;;4984015;28;20223;-78
2021/10/25 14:12:23;;;;;;;2.78;1.63;;;12.70;99.90;;;;;;4983725;28;20231;-78
2021/10/25 14:14:51;;;;;;;3.35;1.73;;;12.60;99.90;;;;;;4984188;28;20716;-78
2021/10/25 14:17:17;;;;;;;3.33;1.60;;;12.50;99.90;;;;;;4983516;28;20208;-78
2021/10/25 14:19:43;;;;;;;2.25;1.58;;;12.50;99.90;;;;;;4984256;28;20192;-78
2021/10/25 14:22:08;;;;;;;2.05;1.70;;;12.50;99.90;;;;;;4982976;28;20176;-78
2021/10/25 14:24:34;;;;;;;2.85;1.45;;;12.60;99.90;;;;;;4981848;28;20192;-80
2021/10/25 14:27:00;;;;;;;3.05;2.30;;;12.50;99.90;;;;;;4981834;28;20196;-78
2021/10/25 14:29:25;;;;;;;2.50;1.95;;;12.50;99.90;;;;;;4981516;28;20251;-79
2021/10/25 14:31:52;;;;;;;4.53;1.90;;;12.60;99.90;;;;;;4982722;28;20190;-77
2021/10/25 14:34:18;;;;;;;1.65;1.50;;;12.70;99.90;;;;;;4983045;28;20424;-77
2021/10/25 14:36:48;;;;;;;2.30;1.63;;;12.60;99.90;;;;;;4981751;28;20804;-79
2021/10/25 14:39:22;;;;;;;2.50;2.30;;;12.40;99.90;;;;;;4983648;28;20203;-77
2021/10/25 14:41:57;;;;;;;3.70;2.20;;;12.40;99.90;;;;;;4981909;28;20183;-77
2021/10/25 14:57:16;;;;;;;2.42;2.22;;;12.00;99.90;;;;;;4981558;28;20567;-78